sensor_id;sensor_type;location;lat;lon;timestamp;P1;durP1;ratioP1;P2;durP2;ratioP2
47529;SDS011;33272;51.922;7.730;2023-04-24T00:01:42;1.07;;;0.97;;
47529;SDS011;33272;51.922;7.730;2023-04-24T00:04:09;1.00;;;0.93;;
47529;SDS011;33272;51.922;7.730;2023-04-24T00:06:42;1.40;;;1.20;;
47529;SDS011;33272;51.922;7.730;2023-04-24T00:09:14;2.10;;;1.20;;
47529;SDS011;33272;51.922;7.730;2023-04-24T00:11:41;1.17;;;0.97;;
47529;SDS011;33272;51.922;7.730;2023-04-24T00:14:08;2.13;;;1.57;;
47529;SDS011;33272;51.922;7.730;2023-04-24T00:16:36;3.30;;;1.30;;
47529;SDS011;33272;51.922;7.730;2023-04-24T00:19:03;1.70;;;1.07;;
47529;SDS011;33272;51.922;7.730;2023-04-24T00:21:30;1.13;;;1.00;;
47529;SDS011;33272;51.922;7.730;2023-04-24T00:24:00;1.67;;;1.10;;
47529;SDS011;33272;51.922;7.730;2023-04-24T00:26:27;2.80;;;1.30;;
47529;SDS011;33272;51.922;7.730;2023-04-24T00:28:53;1.37;;;0.90;;
47529;SDS011;33272;51.922;7.730;2023-04-24T00:31:20;1.13;;;0.90;;
47529;SDS011;33272;51.922;7.730;2023-04-24T00:33:47;1.63;;;0.80;;
47529;SDS011;33272;51.922;7.730;2023-04-24T00:36:14;1.13;;;1.03;;
47529;SDS011;33272;51.922;7.730;2023-04-24T00:38:41;1.73;;;1.13;;
47529;SDS011;33272;51.922;7.730;2023-04-24T00:41:10;0.73;;;0.67;;
47529;SDS011;33272;51.922;7.730;2023-04-24T00:43:37;1.00;;;0.90;;
47529;SDS011;33272;51.922;7.730;2023-04-24T00:46:04;1.10;;;0.97;;
47529;SDS011;33272;51.922;7.730;2023-04-24T00:48:31;2.13;;;0.83;;
47529;SDS011;33272;51.922;7.730;2023-04-24T00:50:58;1.03;;;0.90;;
47529;SDS011;33272;51.922;7.730;2023-04-24T00:53:26;1.67;;;0.80;;
47529;SDS011;33272;51.922;7.730;2023-04-24T00:55:53;1.17;;;1.07;;
47529;SDS011;33272;51.922;7.730;2023-04-24T00:58:21;1.97;;;1.07;;
47529;SDS011;33272;51.922;7.730;2023-04-24T01:00:49;1.83;;;1.13;;
47529;SDS011;33272;51.922;7.730;2023-04-24T01:03:18;1.70;;;1.00;;
47529;SDS011;33272;51.922;7.730;2023-04-24T01:05:47;1.30;;;1.00;;
47529;SDS011;33272;51.922;7.730;2023-04-24T01:08:15;2.73;;;0.83;;
47529;SDS011;33272;51.922;7.730;2023-04-24T01:10:42;1.20;;;1.10;;
47529;SDS011;33272;51.922;7.730;2023-04-24T01:13:11;1.53;;;1.00;;
47529;SDS011;33272;51.922;7.730;2023-04-24T01:15:39;2.67;;;0.97;;
47529;SDS011;33272;51.922;7.730;2023-04-24T01:18:06;1.20;;;1.10;;
47529;SDS011;33272;51.922;7.730;2023-04-24T01:20:33;2.30;;;1.13;;
47529;SDS011;33272;51.922;7.730;2023-04-24T01:23:03;1.10;;;1.00;;
47529;SDS011;33272;51.922;7.730;2023-04-24T01:25:30;1.03;;;0.87;;
47529;SDS011;33272;51.922;7.730;2023-04-24T01:27:57;1.23;;;1.10;;
47529;SDS011;33272;51.922;7.730;2023-04-24T01:30:25;1.77;;;0.80;;
47529;SDS011;33272;51.922;7.730;2023-04-24T01:32:52;0.83;;;0.70;;
47529;SDS011;33272;51.922;7.730;2023-04-24T01:35:20;1.13;;;0.90;;
47529;SDS011;33272;51.922;7.730;2023-04-24T01:37:47;1.70;;;1.10;;
47529;SDS011;33272;51.922;7.730;2023-04-24T01:40:16;1.73;;;1.10;;
47529;SDS011;33272;51.922;7.730;2023-04-24T01:42:44;1.23;;;1.13;;
47529;SDS011;33272;51.922;7.730;2023-04-24T01:45:12;1.70;;;1.17;;
47529;SDS011;33272;51.922;7.730;2023-04-24T01:47:39;1.30;;;1.10;;
47529;SDS011;33272;51.922;7.730;2023-04-24T01:50:06;1.90;;;1.20;;
47529;SDS011;33272;51.922;7.730;2023-04-24T01:52:34;1.40;;;1.30;;
47529;SDS011;33272;51.922;7.730;2023-04-24T01:55:02;1.47;;;1.30;;
47529;SDS011;33272;51.922;7.730;2023-04-24T01:57:31;1.30;;;1.20;;
47529;SDS011;33272;51.922;7.730;2023-04-24T01:59:59;2.70;;;1.10;;
47529;SDS011;33272;51.922;7.730;2023-04-24T02:02:26;1.20;;;1.10;;
47529;SDS011;33272;51.922;7.730;2023-04-24T02:04:53;1.40;;;1.10;;
47529;SDS011;33272;51.922;7.730;2023-04-24T02:07:20;1.47;;;1.27;;
47529;SDS011;33272;51.922;7.730;2023-04-24T02:09:48;2.97;;;1.10;;
47529;SDS011;33272;51.922;7.730;2023-04-24T02:12:15;1.40;;;1.20;;
47529;SDS011;33272;51.922;7.730;2023-04-24T02:14:44;1.73;;;1.20;;
47529;SDS011;33272;51.922;7.730;2023-04-24T02:17:11;1.97;;;1.30;;
47529;SDS011;33272;51.922;7.730;2023-04-24T02:19:39;1.57;;;1.30;;
47529;SDS011;33272;51.922;7.730;2023-04-24T02:22:06;1.40;;;1.30;;
47529;SDS011;33272;51.922;7.730;2023-04-24T02:24:33;1.63;;;1.40;;
47529;SDS011;33272;51.922;7.730;2023-04-24T02:27:00;1.77;;;1.23;;
47529;SDS011;33272;51.922;7.730;2023-04-24T02:29:27;1.77;;;1.40;;
47529;SDS011;33272;51.922;7.730;2023-04-24T02:31:56;1.83;;;1.40;;
47529;SDS011;33272;51.922;7.730;2023-04-24T02:34:23;1.53;;;1.43;;
47529;SDS011;33272;51.922;7.730;2023-04-24T02:36:50;1.60;;;1.50;;
47529;SDS011;33272;51.922;7.730;2023-04-24T02:39:18;1.63;;;1.33;;
47529;SDS011;33272;51.922;7.730;2023-04-24T02:41:46;1.73;;;1.63;;
47529;SDS011;33272;51.922;7.730;2023-04-24T02:44:12;2.00;;;1.83;;
47529;SDS011;33272;51.922;7.730;2023-04-24T02:46:39;2.97;;;1.90;;
47529;SDS011;33272;51.922;7.730;2023-04-24T02:49:08;2.87;;;2.17;;
47529;SDS011;33272;51.922;7.730;2023-04-24T02:51:36;4.47;;;2.70;;
47529;SDS011;33272;51.922;7.730;2023-04-24T02:54:06;2.67;;;2.03;;
47529;SDS011;33272;51.922;7.730;2023-04-24T02:56:34;2.40;;;2.20;;
47529;SDS011;33272;51.922;7.730;2023-04-24T02:59:01;2.80;;;2.60;;
47529;SDS011;33272;51.922;7.730;2023-04-24T03:01:28;3.67;;;2.90;;
47529;SDS011;33272;51.922;7.730;2023-04-24T03:03:55;3.10;;;2.80;;
47529;SDS011;33272;51.922;7.730;2023-04-24T03:06:24;4.00;;;3.13;;
47529;SDS011;33272;51.922;7.730;2023-04-24T03:08:52;3.27;;;2.53;;
47529;SDS011;33272;51.922;7.730;2023-04-24T03:11:19;2.60;;;2.40;;
47529;SDS011;33272;51.922;7.730;2023-04-24T03:13:46;2.97;;;2.70;;
47529;SDS011;33272;51.922;7.730;2023-04-24T03:16:13;2.70;;;2.20;;
47529;SDS011;33272;51.922;7.730;2023-04-24T03:18:40;2.90;;;2.43;;
47529;SDS011;33272;51.922;7.730;2023-04-24T03:21:07;2.70;;;2.40;;
47529;SDS011;33272;51.922;7.730;2023-04-24T03:23:36;3.60;;;3.30;;
47529;SDS011;33272;51.922;7.730;2023-04-24T03:26:03;3.57;;;3.27;;
47529;SDS011;33272;51.922;7.730;2023-04-24T03:28:30;4.77;;;3.80;;
47529;SDS011;33272;51.922;7.730;2023-04-24T03:30:57;4.13;;;3.47;;
47529;SDS011;33272;51.922;7.730;2023-04-24T03:33:24;3.93;;;3.50;;
47529;SDS011;33272;51.922;7.730;2023-04-24T03:35:51;4.27;;;3.50;;
47529;SDS011;33272;51.922;7.730;2023-04-24T03:38:18;3.87;;;3.50;;
47529;SDS011;33272;51.922;7.730;2023-04-24T03:40:46;4.27;;;3.53;;
47529;SDS011;33272;51.922;7.730;2023-04-24T03:43:13;3.90;;;3.50;;
47529;SDS011;33272;51.922;7.730;2023-04-24T03:45:40;5.17;;;4.30;;
47529;SDS011;33272;51.922;7.730;2023-04-24T03:48:07;4.57;;;4.17;;
47529;SDS011;33272;51.922;7.730;2023-04-24T03:50:34;4.57;;;3.93;;
47529;SDS011;33272;51.922;7.730;2023-04-24T03:53:01;6.87;;;4.27;;
47529;SDS011;33272;51.922;7.730;2023-04-24T03:55:28;5.80;;;4.10;;
47529;SDS011;33272;51.922;7.730;2023-04-24T03:57:57;5.13;;;4.23;;
47529;SDS011;33272;51.922;7.730;2023-04-24T04:00:24;6.93;;;4.80;;
47529;SDS011;33272;51.922;7.730;2023-04-24T04:02:51;6.27;;;5.37;;
47529;SDS011;33272;51.922;7.730;2023-04-24T04:05:18;7.33;;;5.73;;
47529;SDS011;33272;51.922;7.730;2023-04-24T04:07:45;6.47;;;5.47;;
47529;SDS011;33272;51.922;7.730;2023-04-24T04:10:12;7.27;;;5.80;;
47529;SDS011;33272;51.922;7.730;2023-04-24T04:12:39;7.47;;;6.23;;
47529;SDS011;33272;51.922;7.730;2023-04-24T04:15:08;8.90;;;6.93;;
47529;SDS011;33272;51.922;7.730;2023-04-24T04:17:35;8.63;;;7.10;;
47529;SDS011;33272;51.922;7.730;2023-04-24T04:20:03;9.37;;;8.13;;
47529;SDS011;33272;51.922;7.730;2023-04-24T04:22:34;9.23;;;7.17;;
47529;SDS011;33272;51.922;7.730;2023-04-24T04:25:01;11.93;;;7.93;;
47529;SDS011;33272;51.922;7.730;2023-04-24T04:27:28;8.80;;;7.50;;
47529;SDS011;33272;51.922;7.730;2023-04-24T04:29:57;11.27;;;8.43;;
47529;SDS011;33272;51.922;7.730;2023-04-24T04:32:27;9.70;;;8.53;;
47529;SDS011;33272;51.922;7.730;2023-04-24T04:34:54;12.80;;;8.80;;
47529;SDS011;33272;51.922;7.730;2023-04-24T04:37:21;10.30;;;9.23;;
47529;SDS011;33272;51.922;7.730;2023-04-24T04:39:48;10.73;;;9.20;;
47529;SDS011;33272;51.922;7.730;2023-04-24T04:42:15;10.70;;;9.43;;
47529;SDS011;33272;51.922;7.730;2023-04-24T04:44:43;10.57;;;9.17;;
47529;SDS011;33272;51.922;7.730;2023-04-24T04:47:11;11.73;;;9.90;;
47529;SDS011;33272;51.922;7.730;2023-04-24T04:49:39;12.07;;;9.10;;
47529;SDS011;33272;51.922;7.730;2023-04-24T04:52:08;10.90;;;9.80;;
47529;SDS011;33272;51.922;7.730;2023-04-24T04:54:35;13.40;;;9.67;;
47529;SDS011;33272;51.922;7.730;2023-04-24T04:57:02;10.93;;;8.67;;
47529;SDS011;33272;51.922;7.730;2023-04-24T04:59:29;12.00;;;9.30;;
47529;SDS011;33272;51.922;7.730;2023-04-24T05:01:56;10.80;;;9.23;;
47529;SDS011;33272;51.922;7.730;2023-04-24T05:04:23;10.83;;;9.57;;
47529;SDS011;33272;51.922;7.730;2023-04-24T05:06:51;11.83;;;9.60;;
47529;SDS011;33272;51.922;7.730;2023-04-24T05:09:18;10.70;;;9.47;;
47529;SDS011;33272;51.922;7.730;2023-04-24T05:11:45;10.03;;;8.90;;
47529;SDS011;33272;51.922;7.730;2023-04-24T05:14:12;13.27;;;9.53;;
47529;SDS011;33272;51.922;7.730;2023-04-24T05:16:39;12.37;;;9.73;;
47529;SDS011;33272;51.922;7.730;2023-04-24T05:19:06;11.93;;;9.80;;
47529;SDS011;33272;51.922;7.730;2023-04-24T05:21:33;11.20;;;9.30;;
47529;SDS011;33272;51.922;7.730;2023-04-24T05:24:02;11.13;;;9.83;;
47529;SDS011;33272;51.922;7.730;2023-04-24T05:26:29;11.73;;;9.83;;
47529;SDS011;33272;51.922;7.730;2023-04-24T05:28:56;12.67;;;9.83;;
47529;SDS011;33272;51.922;7.730;2023-04-24T05:31:23;12.77;;;9.70;;
47529;SDS011;33272;51.922;7.730;2023-04-24T05:33:51;12.47;;;10.20;;
47529;SDS011;33272;51.922;7.730;2023-04-24T05:36:17;12.37;;;10.13;;
47529;SDS011;33272;51.922;7.730;2023-04-24T05:38:45;12.23;;;9.20;;
47529;SDS011;33272;51.922;7.730;2023-04-24T05:41:13;12.33;;;9.30;;
47529;SDS011;33272;51.922;7.730;2023-04-24T05:43:40;12.50;;;9.90;;
47529;SDS011;33272;51.922;7.730;2023-04-24T05:46:07;13.30;;;10.00;;
47529;SDS011;33272;51.922;7.730;2023-04-24T05:48:34;15.30;;;9.80;;
47529;SDS011;33272;51.922;7.730;2023-04-24T05:51:01;13.60;;;9.87;;
47529;SDS011;33272;51.922;7.730;2023-04-24T05:53:28;11.20;;;9.10;;
47529;SDS011;33272;51.922;7.730;2023-04-24T05:55:55;10.70;;;9.60;;
47529;SDS011;33272;51.922;7.730;2023-04-24T05:58:23;13.83;;;9.70;;
47529;SDS011;33272;51.922;7.730;2023-04-24T06:00:50;10.67;;;8.27;;
47529;SDS011;33272;51.922;7.730;2023-04-24T06:03:18;11.43;;;9.13;;
47529;SDS011;33272;51.922;7.730;2023-04-24T06:05:45;9.47;;;8.43;;
47529;SDS011;33272;51.922;7.730;2023-04-24T06:08:12;10.70;;;8.80;;
47529;SDS011;33272;51.922;7.730;2023-04-24T06:10:42;12.00;;;8.70;;
47529;SDS011;33272;51.922;7.730;2023-04-24T06:13:09;9.63;;;8.63;;
47529;SDS011;33272;51.922;7.730;2023-04-24T06:15:37;11.77;;;8.23;;
47529;SDS011;33272;51.922;7.730;2023-04-24T06:18:05;9.93;;;8.77;;
47529;SDS011;33272;51.922;7.730;2023-04-24T06:20:32;9.80;;;8.67;;
47529;SDS011;33272;51.922;7.730;2023-04-24T06:22:59;10.80;;;7.80;;
47529;SDS011;33272;51.922;7.730;2023-04-24T06:25:28;11.97;;;8.40;;
47529;SDS011;33272;51.922;7.730;2023-04-24T06:27:55;9.20;;;7.87;;
47529;SDS011;33272;51.922;7.730;2023-04-24T06:30:23;10.60;;;8.63;;
47529;SDS011;33272;51.922;7.730;2023-04-24T06:32:51;9.50;;;8.50;;
47529;SDS011;33272;51.922;7.730;2023-04-24T06:35:18;10.83;;;7.87;;
47529;SDS011;33272;51.922;7.730;2023-04-24T06:37:45;10.37;;;7.77;;
47529;SDS011;33272;51.922;7.730;2023-04-24T06:40:12;9.23;;;7.23;;
47529;SDS011;33272;51.922;7.730;2023-04-24T06:42:39;10.03;;;8.17;;
47529;SDS011;33272;51.922;7.730;2023-04-24T06:45:07;8.70;;;7.63;;
47529;SDS011;33272;51.922;7.730;2023-04-24T06:47:35;9.20;;;8.10;;
47529;SDS011;33272;51.922;7.730;2023-04-24T06:50:04;8.47;;;7.43;;
47529;SDS011;33272;51.922;7.730;2023-04-24T06:52:32;7.60;;;6.63;;
47529;SDS011;33272;51.922;7.730;2023-04-24T06:55:00;8.93;;;6.60;;
47529;SDS011;33272;51.922;7.730;2023-04-24T06:57:28;7.83;;;6.50;;
47529;SDS011;33272;51.922;7.730;2023-04-24T06:59:55;7.80;;;5.90;;
47529;SDS011;33272;51.922;7.730;2023-04-24T07:02:22;7.57;;;6.03;;
47529;SDS011;33272;51.922;7.730;2023-04-24T07:04:49;8.93;;;6.43;;
47529;SDS011;33272;51.922;7.730;2023-04-24T07:07:19;8.23;;;6.33;;
47529;SDS011;33272;51.922;7.730;2023-04-24T07:09:46;8.10;;;7.13;;
47529;SDS011;33272;51.922;7.730;2023-04-24T07:12:13;7.43;;;6.67;;
47529;SDS011;33272;51.922;7.730;2023-04-24T07:14:41;7.53;;;6.40;;
47529;SDS011;33272;51.922;7.730;2023-04-24T07:17:09;7.40;;;6.27;;
47529;SDS011;33272;51.922;7.730;2023-04-24T07:19:38;7.53;;;6.77;;
47529;SDS011;33272;51.922;7.730;2023-04-24T07:22:05;6.77;;;6.07;;
47529;SDS011;33272;51.922;7.730;2023-04-24T07:24:33;6.93;;;6.13;;
47529;SDS011;33272;51.922;7.730;2023-04-24T07:27:00;8.60;;;6.60;;
47529;SDS011;33272;51.922;7.730;2023-04-24T07:29:27;6.97;;;5.57;;
47529;SDS011;33272;51.922;7.730;2023-04-24T07:31:54;8.03;;;6.17;;
47529;SDS011;33272;51.922;7.730;2023-04-24T07:34:22;7.37;;;5.60;;
47529;SDS011;33272;51.922;7.730;2023-04-24T07:36:49;6.33;;;5.63;;
47529;SDS011;33272;51.922;7.730;2023-04-24T07:39:16;9.30;;;6.53;;
47529;SDS011;33272;51.922;7.730;2023-04-24T07:41:45;5.67;;;4.70;;
47529;SDS011;33272;51.922;7.730;2023-04-24T07:44:12;5.57;;;5.00;;
47529;SDS011;33272;51.922;7.730;2023-04-24T07:46:39;7.70;;;4.60;;
47529;SDS011;33272;51.922;7.730;2023-04-24T07:49:06;5.63;;;4.93;;
47529;SDS011;33272;51.922;7.730;2023-04-24T07:51:33;5.67;;;4.20;;
47529;SDS011;33272;51.922;7.730;2023-04-24T07:54:03;5.20;;;4.03;;
47529;SDS011;33272;51.922;7.730;2023-04-24T07:56:30;4.40;;;4.00;;
47529;SDS011;33272;51.922;7.730;2023-04-24T07:59:00;4.87;;;4.37;;
47529;SDS011;33272;51.922;7.730;2023-04-24T08:01:27;4.50;;;4.10;;
47529;SDS011;33272;51.922;7.730;2023-04-24T08:03:55;5.17;;;4.07;;
47529;SDS011;33272;51.922;7.730;2023-04-24T08:06:22;5.23;;;4.10;;
47529;SDS011;33272;51.922;7.730;2023-04-24T08:08:50;4.77;;;4.10;;
47529;SDS011;33272;51.922;7.730;2023-04-24T08:11:17;5.43;;;4.27;;
47529;SDS011;33272;51.922;7.730;2023-04-24T08:13:44;4.00;;;3.60;;
47529;SDS011;33272;51.922;7.730;2023-04-24T08:16:13;4.53;;;3.50;;
47529;SDS011;33272;51.922;7.730;2023-04-24T08:18:40;5.00;;;3.50;;
47529;SDS011;33272;51.922;7.730;2023-04-24T08:21:07;3.43;;;3.13;;
47529;SDS011;33272;51.922;7.730;2023-04-24T08:23:34;4.33;;;3.27;;
47529;SDS011;33272;51.922;7.730;2023-04-24T08:26:01;3.60;;;3.23;;
47529;SDS011;33272;51.922;7.730;2023-04-24T08:28:28;3.87;;;3.50;;
47529;SDS011;33272;51.922;7.730;2023-04-24T08:30:55;4.07;;;3.40;;
47529;SDS011;33272;51.922;7.730;2023-04-24T08:33:23;3.60;;;3.30;;
47529;SDS011;33272;51.922;7.730;2023-04-24T08:35:51;3.77;;;3.00;;
47529;SDS011;33272;51.922;7.730;2023-04-24T08:38:19;3.33;;;3.03;;
47529;SDS011;33272;51.922;7.730;2023-04-24T08:40:46;3.33;;;3.03;;
47529;SDS011;33272;51.922;7.730;2023-04-24T08:43:14;3.27;;;2.97;;
47529;SDS011;33272;51.922;7.730;2023-04-24T08:45:42;3.43;;;3.13;;
47529;SDS011;33272;51.922;7.730;2023-04-24T08:48:09;3.60;;;2.90;;
47529;SDS011;33272;51.922;7.730;2023-04-24T08:50:39;3.07;;;2.77;;
47529;SDS011;33272;51.922;7.730;2023-04-24T08:53:09;3.53;;;3.23;;
47529;SDS011;33272;51.922;7.730;2023-04-24T08:55:37;3.23;;;2.70;;
47529;SDS011;33272;51.922;7.730;2023-04-24T08:58:04;2.50;;;2.30;;
47529;SDS011;33272;51.922;7.730;2023-04-24T09:00:32;3.00;;;2.47;;
47529;SDS011;33272;51.922;7.730;2023-04-24T09:03:00;3.10;;;2.37;;
47529;SDS011;33272;51.922;7.730;2023-04-24T09:05:28;2.67;;;2.47;;
47529;SDS011;33272;51.922;7.730;2023-04-24T09:07:58;4.07;;;2.87;;
47529;SDS011;33272;51.922;7.730;2023-04-24T09:10:27;4.17;;;2.70;;
47529;SDS011;33272;51.922;7.730;2023-04-24T09:12:55;4.23;;;2.50;;
47529;SDS011;33272;51.922;7.730;2023-04-24T09:15:26;2.70;;;2.50;;
47529;SDS011;33272;51.922;7.730;2023-04-24T09:17:53;4.00;;;3.03;;
47529;SDS011;33272;51.922;7.730;2023-04-24T09:20:21;3.33;;;2.70;;
47529;SDS011;33272;51.922;7.730;2023-04-24T09:22:48;2.47;;;2.27;;
47529;SDS011;33272;51.922;7.730;2023-04-24T09:25:22;3.27;;;2.20;;
47529;SDS011;33272;51.922;7.730;2023-04-24T09:27:53;2.97;;;1.97;;
47529;SDS011;33272;51.922;7.730;2023-04-24T09:30:21;2.97;;;2.20;;
47529;SDS011;33272;51.922;7.730;2023-04-24T09:32:48;2.43;;;2.20;;
47529;SDS011;33272;51.922;7.730;2023-04-24T09:35:15;3.37;;;2.17;;
47529;SDS011;33272;51.922;7.730;2023-04-24T09:37:44;4.67;;;2.03;;
47529;SDS011;33272;51.922;7.730;2023-04-24T09:40:14;2.10;;;1.90;;
47529;SDS011;33272;51.922;7.730;2023-04-24T09:42:45;2.33;;;2.13;;
47529;SDS011;33272;51.922;7.730;2023-04-24T09:45:13;2.60;;;2.33;;
47529;SDS011;33272;51.922;7.730;2023-04-24T09:47:40;2.83;;;2.50;;
47529;SDS011;33272;51.922;7.730;2023-04-24T09:50:12;3.80;;;2.30;;
47529;SDS011;33272;51.922;7.730;2023-04-24T09:52:44;3.43;;;2.90;;
47529;SDS011;33272;51.922;7.730;2023-04-24T09:55:14;3.80;;;2.70;;
47529;SDS011;33272;51.922;7.730;2023-04-24T09:57:49;4.37;;;2.57;;
47529;SDS011;33272;51.922;7.730;2023-04-24T10:00:18;3.00;;;2.70;;
47529;SDS011;33272;51.922;7.730;2023-04-24T10:02:54;4.00;;;2.67;;
47529;SDS011;33272;51.922;7.730;2023-04-24T10:05:23;3.40;;;3.10;;
47529;SDS011;33272;51.922;7.730;2023-04-24T10:07:56;3.30;;;2.80;;
47529;SDS011;33272;51.922;7.730;2023-04-24T10:10:26;3.03;;;2.73;;
47529;SDS011;33272;51.922;7.730;2023-04-24T10:12:55;4.63;;;2.77;;
47529;SDS011;33272;51.922;7.730;2023-04-24T10:15:23;3.17;;;2.87;;
47529;SDS011;33272;51.922;7.730;2023-04-24T10:17:58;3.20;;;2.90;;
47529;SDS011;33272;51.922;7.730;2023-04-24T10:20:27;2.97;;;2.67;;
47529;SDS011;33272;51.922;7.730;2023-04-24T10:22:56;3.07;;;2.83;;
47529;SDS011;33272;51.922;7.730;2023-04-24T10:25:25;3.60;;;3.27;;
47529;SDS011;33272;51.922;7.730;2023-04-24T10:27:56;3.20;;;2.90;;
47529;SDS011;33272;51.922;7.730;2023-04-24T10:30:25;3.87;;;2.70;;
47529;SDS011;33272;51.922;7.730;2023-04-24T10:32:53;2.43;;;2.23;;
47529;SDS011;33272;51.922;7.730;2023-04-24T10:35:21;2.97;;;2.67;;
47529;SDS011;33272;51.922;7.730;2023-04-24T10:37:52;2.93;;;2.60;;
47529;SDS011;33272;51.922;7.730;2023-04-24T10:40:25;3.00;;;2.70;;
47529;SDS011;33272;51.922;7.730;2023-04-24T10:42:53;2.77;;;2.57;;
47529;SDS011;33272;51.922;7.730;2023-04-24T10:45:23;3.63;;;2.37;;
47529;SDS011;33272;51.922;7.730;2023-04-24T10:47:51;2.87;;;2.67;;
47529;SDS011;33272;51.922;7.730;2023-04-24T10:50:19;2.93;;;2.57;;
47529;SDS011;33272;51.922;7.730;2023-04-24T10:52:46;3.80;;;2.60;;
47529;SDS011;33272;51.922;7.730;2023-04-24T10:55:16;3.93;;;3.20;;
47529;SDS011;33272;51.922;7.730;2023-04-24T10:58:09;4.13;;;3.00;;
47529;SDS011;33272;51.922;7.730;2023-04-24T11:00:36;4.47;;;3.40;;
47529;SDS011;33272;51.922;7.730;2023-04-24T11:03:05;5.60;;;3.50;;
47529;SDS011;33272;51.922;7.730;2023-04-24T11:05:48;4.90;;;3.77;;
47529;SDS011;33272;51.922;7.730;2023-04-24T11:08:25;3.80;;;3.30;;
47529;SDS011;33272;51.922;7.730;2023-04-24T11:10:56;5.20;;;3.30;;
47529;SDS011;33272;51.922;7.730;2023-04-24T11:13:27;4.43;;;4.03;;
47529;SDS011;33272;51.922;7.730;2023-04-24T11:16:34;5.50;;;4.33;;
47529;SDS011;33272;51.922;7.730;2023-04-24T11:19:09;9.00;;;3.73;;
47529;SDS011;33272;51.922;7.730;2023-04-24T11:21:45;3.77;;;3.37;;
47529;SDS011;33272;51.922;7.730;2023-04-24T11:24:22;4.97;;;3.50;;
47529;SDS011;33272;51.922;7.730;2023-04-24T11:26:51;3.97;;;2.90;;
47529;SDS011;33272;51.922;7.730;2023-04-24T11:29:21;4.50;;;3.17;;
47529;SDS011;33272;51.922;7.730;2023-04-24T11:31:49;3.43;;;3.13;;
47529;SDS011;33272;51.922;7.730;2023-04-24T11:34:17;4.53;;;3.50;;
47529;SDS011;33272;51.922;7.730;2023-04-24T11:36:44;3.30;;;3.00;;
47529;SDS011;33272;51.922;7.730;2023-04-24T11:39:13;4.70;;;3.30;;
47529;SDS011;33272;51.922;7.730;2023-04-24T11:41:40;4.17;;;3.30;;
47529;SDS011;33272;51.922;7.730;2023-04-24T11:44:08;7.17;;;3.90;;
47529;SDS011;33272;51.922;7.730;2023-04-24T11:46:37;4.73;;;3.60;;
47529;SDS011;33272;51.922;7.730;2023-04-24T11:49:05;3.77;;;3.40;;
47529;SDS011;33272;51.922;7.730;2023-04-24T11:51:32;4.47;;;3.83;;
47529;SDS011;33272;51.922;7.730;2023-04-24T11:54:00;4.07;;;3.17;;
47529;SDS011;33272;51.922;7.730;2023-04-24T11:56:27;3.97;;;3.17;;
47529;SDS011;33272;51.922;7.730;2023-04-24T11:58:54;5.00;;;3.40;;
47529;SDS011;33272;51.922;7.730;2023-04-24T12:01:21;4.57;;;3.20;;
47529;SDS011;33272;51.922;7.730;2023-04-24T12:03:50;3.73;;;3.33;;
47529;SDS011;33272;51.922;7.730;2023-04-24T12:06:25;4.47;;;3.83;;
47529;SDS011;33272;51.922;7.730;2023-04-24T12:08:52;5.17;;;3.40;;
47529;SDS011;33272;51.922;7.730;2023-04-24T12:11:20;5.73;;;3.93;;
47529;SDS011;33272;51.922;7.730;2023-04-24T12:13:47;6.70;;;3.70;;
47529;SDS011;33272;51.922;7.730;2023-04-24T12:16:14;5.77;;;3.70;;
47529;SDS011;33272;51.922;7.730;2023-04-24T12:18:41;7.57;;;4.50;;
47529;SDS011;33272;51.922;7.730;2023-04-24T12:21:21;5.80;;;3.80;;
47529;SDS011;33272;51.922;7.730;2023-04-24T12:23:53;8.00;;;4.50;;
47529;SDS011;33272;51.922;7.730;2023-04-24T12:26:21;6.17;;;4.07;;
47529;SDS011;33272;51.922;7.730;2023-04-24T12:28:48;7.30;;;3.70;;
47529;SDS011;33272;51.922;7.730;2023-04-24T12:31:16;6.70;;;4.53;;
47529;SDS011;33272;51.922;7.730;2023-04-24T12:33:43;12.07;;;4.63;;
47529;SDS011;33272;51.922;7.730;2023-04-24T12:36:11;7.50;;;4.00;;
47529;SDS011;33272;51.922;7.730;2023-04-24T12:38:39;6.73;;;4.00;;
47529;SDS011;33272;51.922;7.730;2023-04-24T12:41:11;8.13;;;4.43;;
47529;SDS011;33272;51.922;7.730;2023-04-24T12:43:50;7.70;;;4.07;;
47529;SDS011;33272;51.922;7.730;2023-04-24T12:46:18;9.00;;;4.20;;
47529;SDS011;33272;51.922;7.730;2023-04-24T12:48:45;7.43;;;4.77;;
47529;SDS011;33272;51.922;7.730;2023-04-24T12:51:12;10.27;;;5.03;;
47529;SDS011;33272;51.922;7.730;2023-04-24T12:53:40;9.23;;;4.40;;
47529;SDS011;33272;51.922;7.730;2023-04-24T12:56:07;8.60;;;4.60;;
47529;SDS011;33272;51.922;7.730;2023-04-24T12:58:34;7.00;;;4.70;;
47529;SDS011;33272;51.922;7.730;2023-04-24T13:01:01;10.93;;;4.97;;
47529;SDS011;33272;51.922;7.730;2023-04-24T13:03:28;8.83;;;3.90;;
47529;SDS011;33272;51.922;7.730;2023-04-24T13:05:55;7.27;;;4.20;;
47529;SDS011;33272;51.922;7.730;2023-04-24T13:08:22;8.87;;;4.43;;
47529;SDS011;33272;51.922;7.730;2023-04-24T13:10:51;6.73;;;4.40;;
47529;SDS011;33272;51.922;7.730;2023-04-24T13:13:18;8.47;;;4.50;;
47529;SDS011;33272;51.922;7.730;2023-04-24T13:15:45;10.10;;;4.30;;
47529;SDS011;33272;51.922;7.730;2023-04-24T13:18:12;8.10;;;4.40;;
47529;SDS011;33272;51.922;7.730;2023-04-24T13:20:40;7.93;;;4.47;;
47529;SDS011;33272;51.922;7.730;2023-04-24T13:23:07;9.13;;;4.10;;
47529;SDS011;33272;51.922;7.730;2023-04-24T13:25:35;9.07;;;4.23;;
47529;SDS011;33272;51.922;7.730;2023-04-24T13:28:05;7.77;;;4.70;;
47529;SDS011;33272;51.922;7.730;2023-04-24T13:30:32;8.23;;;4.60;;
47529;SDS011;33272;51.922;7.730;2023-04-24T13:32:59;12.87;;;4.83;;
47529;SDS011;33272;51.922;7.730;2023-04-24T13:35:26;10.50;;;4.60;;
47529;SDS011;33272;51.922;7.730;2023-04-24T13:37:53;12.10;;;5.33;;
47529;SDS011;33272;51.922;7.730;2023-04-24T13:40:20;9.47;;;4.40;;
47529;SDS011;33272;51.922;7.730;2023-04-24T13:42:47;8.57;;;3.63;;
47529;SDS011;33272;51.922;7.730;2023-04-24T13:45:15;8.67;;;3.80;;
47529;SDS011;33272;51.922;7.730;2023-04-24T13:47:42;6.50;;;4.03;;
47529;SDS011;33272;51.922;7.730;2023-04-24T13:50:10;7.23;;;3.50;;
47529;SDS011;33272;51.922;7.730;2023-04-24T13:52:37;5.17;;;3.87;;
47529;SDS011;33272;51.922;7.730;2023-04-24T13:55:05;5.03;;;3.20;;
47529;SDS011;33272;51.922;7.730;2023-04-24T13:57:33;5.97;;;2.80;;
47529;SDS011;33272;51.922;7.730;2023-04-24T14:00:00;4.13;;;2.50;;
47529;SDS011;33272;51.922;7.730;2023-04-24T14:02:30;6.03;;;2.20;;
47529;SDS011;33272;51.922;7.730;2023-04-24T14:04:57;7.47;;;2.97;;
47529;SDS011;33272;51.922;7.730;2023-04-24T14:07:24;5.13;;;2.63;;
47529;SDS011;33272;51.922;7.730;2023-04-24T14:09:51;5.80;;;2.40;;
47529;SDS011;33272;51.922;7.730;2023-04-24T14:12:18;5.10;;;2.17;;
47529;SDS011;33272;51.922;7.730;2023-04-24T14:14:45;6.17;;;2.33;;
47529;SDS011;33272;51.922;7.730;2023-04-24T14:17:13;4.53;;;2.60;;
47529;SDS011;33272;51.922;7.730;2023-04-24T14:19:41;4.57;;;2.27;;
47529;SDS011;33272;51.922;7.730;2023-04-24T14:22:09;3.37;;;2.00;;
47529;SDS011;33272;51.922;7.730;2023-04-24T14:24:36;4.10;;;2.03;;
47529;SDS011;33272;51.922;7.730;2023-04-24T14:27:03;3.37;;;1.93;;
47529;SDS011;33272;51.922;7.730;2023-04-24T14:29:30;2.27;;;1.80;;
47529;SDS011;33272;51.922;7.730;2023-04-24T14:31:57;2.80;;;1.73;;
47529;SDS011;33272;51.922;7.730;2023-04-24T14:34:24;3.13;;;1.87;;
47529;SDS011;33272;51.922;7.730;2023-04-24T14:36:52;3.47;;;1.93;;
47529;SDS011;33272;51.922;7.730;2023-04-24T14:39:20;2.93;;;2.10;;
47529;SDS011;33272;51.922;7.730;2023-04-24T14:41:47;3.50;;;2.10;;
47529;SDS011;33272;51.922;7.730;2023-04-24T14:44:14;3.07;;;2.30;;
47529;SDS011;33272;51.922;7.730;2023-04-24T14:46:41;2.37;;;1.90;;
47529;SDS011;33272;51.922;7.730;2023-04-24T14:49:08;2.60;;;1.90;;
47529;SDS011;33272;51.922;7.730;2023-04-24T14:51:36;2.57;;;1.70;;